Great Falls, MT (59401)

4:34 PM MDT on August 22, 2014 (GMT -0600)
Spicer's | Change Station
CLOSE
Current Station
Personal Weather Station
Location: Great Falls, MT
Elevation: 3323 ft
Nearby Weather Stations

Elev 3323 ft 47.51 °N, 111.32 °W | Updated 5 seconds ago

Overcast
Overcast
62.4 °F
Feels Like 62.4 °F
N
2.0
Wind Variable Wind from North
Gusts 5.0 mph

Today
High -- | Low -- °F
--% Chance of Precip.
Yesterday
High -- | Low -- °F
Precip. -- in
6:30 AM 8:24 PM
Waning Crescent, 6% visible
Pressure 30.12 in
Visibility 10.0 miles
Clouds Few 1700 ft
Mostly Cloudy 3400 ft
Overcast 4700 ft
Dew Point 53 °F
Humidity 71%
Rainfall 0.49 in
Snow Depth Not available.
UV 2 out of 12
Pollen 2.20 out of 12
Air Quality Not available.
Flu Activity Not available.
METAR KGTF 222153Z 01008KT 10SM FEW017 BKN034 OVC047 14/11 A3012 RMK AO2 RAE38 SLP197 P0003 T01390111

More Conditions Fewer Conditions

Pressure 30.12 in
Visibility 10.0 miles
Clouds Few 1700 ft
Mostly Cloudy 3400 ft
Overcast 4700 ft
Dew Point 53 °F
Humidity 71%
Rainfall 0.49 in
Snow Depth Not available.
UV 2 out of 12
Pollen 2.20 out of 12
Air Quality Not available.
Flu Activity Not available.
METAR KGTF 222153Z 01008KT 10SM FEW017 BKN034 OVC047 14/11 A3012 RMK AO2 RAE38 SLP197 P0003 T01390111

More Conditions Fewer Conditions

10-Day Weather Forecast

Almanac

Astronomy

Aug. 22, 2014 Rise Set
Actual Time 6:30 AM MDT 8:24 PM MDT
Civil Twilight 5:57 AM MDT 8:57 PM MDT
Nautical Twilight 5:17 AM MDT 9:37 PM MDT
Astronomical Twilight 4:32 AM MDT 10:21 PM MDT
Moon 3:51 AM MDT 6:38 PM MDT
Length of Visible Light 14h 59m
Length of Day
13h 53m
Tomorrow will be 3m 12s shorter.
Waning Crescent, 6% of the Moon is Illuminated
Today
Waning Crescent
Aug 25
New
Sep 2
First Quarter
Sep 8
Full
Sep 15
Last Quarter

Today's Extremes

State Highs State Lows

Community

WunderPhotos

Upload Photos

1,746,274 photos uploaded!

WunderBlogs® & News

By Dr. Jeff Masters
Director of Meteorology, Weather Underground
By Kari Strenfel
Meteorologist, Weather Underground
By Christopher C. Burt
Weather Historian, Weather Underground
August 22, 2014
August 22, 2014
August 22, 2014

Nearby

Snow Depth

Station Depth Elevation
Stringer Creek 0 in 6550 ft
Onion Park 0 in 7410 ft
Boulder Mountain 0 in 7950 ft
Nevada Ridge 1 in 7020 ft
Waldron 2 in 5600 ft

Earthquake Activity

City Distance Mag. Time & Date
No recent earthquake activity has been reported nearby.
Minimum magnitude displayed is 2.5.

Coastal Water Temperatures

Place Temperature
No Stations Reporting

Nearby Weather Stations